Time;durP1;ratioP1;P1;durP2;ratioP2;P2;SDS_P1;SDS_P2;PMS_P1;PMS_P2;Temp;Humidity;BMP_temperature;BMP_pressure;BME280_temperature;BME280_humidity;BME280_pressure;Samples;Min_cycle;Max_cycle;Signal;HPM_P1;HPM_P2
2021/01/16 00:00:33;;;;;;;20.92;10.00;;;2.90;79.50;;;3.31;62.56;101896.91;4997311;28;20074;-84
2021/01/16 00:02:59;;;;;;;20.10;10.15;;;2.90;79.30;;;3.33;62.58;101888.72;4996869;28;20077;-84
2021/01/16 00:05:28;;;;;;;20.02;10.40;;;2.80;78.90;;;3.36;62.67;101888.53;4996239;28;20113;-84
2021/01/16 00:08:03;;;;;;;19.88;10.70;;;2.90;79.50;;;3.39;63.07;101888.34;4996774;28;20062;-84
2021/01/16 00:10:33;;;;;;;20.15;10.43;;;2.90;79.70;;;3.27;63.38;101889.16;4996945;28;20073;-84
2021/01/16 00:13:00;;;;;;;17.50;9.52;;;2.80;79.40;;;3.17;63.50;101888.91;5008627;28;20073;-84
2021/01/16 00:15:28;;;;;;;17.48;9.18;;;2.80;79.80;;;3.16;64.00;101886.31;5015956;28;20098;-84
2021/01/16 00:18:01;;;;;;;20.58;10.25;;;2.80;80.30;;;3.21;63.91;101886.88;5006422;28;20043;-84
2021/01/16 00:20:28;;;;;;;18.90;10.15;;;2.80;80.50;;;3.33;63.75;101889.59;4995469;28;20046;-84
2021/01/16 00:22:54;;;;;;;17.88;9.43;;;2.80;80.50;;;3.22;63.38;101884.09;4996660;28;20077;-84
2021/01/16 00:25:22;;;;;;;19.65;10.07;;;2.80;80.20;;;3.09;65.13;101886.72;4996245;28;20410;-84
2021/01/16 00:27:50;;;;;;;21.02;11.00;;;2.80;80.40;;;3.10;63.96;101882.19;4996037;28;20046;-84
2021/01/16 00:30:21;;;;;;;19.63;10.20;;;2.80;80.30;;;3.22;63.72;101891.28;4996854;28;20134;-84
2021/01/16 00:32:48;;;;;;;20.17;10.45;;;2.80;80.00;;;3.28;63.93;101885.50;4995698;28;20074;-84
2021/01/16 00:35:17;;;;;;;16.88;9.35;;;2.80;80.40;;;3.17;63.87;101882.66;4994647;28;20052;-84
2021/01/16 00:37:45;;;;;;;21.80;10.68;;;2.90;80.60;;;3.11;64.24;101879.41;4995831;28;20501;-84
2021/01/16 00:40:17;;;;;;;17.95;9.80;;;2.80;80.20;;;3.23;63.58;101883.09;4996416;28;20474;-84
2021/01/16 00:42:46;;;;;;;17.30;9.27;;;2.80;79.90;;;3.18;64.18;101884.38;4995862;28;20141;-84
2021/01/16 00:45:16;;;;;;;20.33;9.63;;;2.90;80.40;;;3.20;63.97;101880.63;4995912;28;20106;-84
2021/01/16 00:47:43;;;;;;;22.95;10.43;;;2.80;79.80;;;3.28;63.80;101880.97;4995535;28;20050;-84
2021/01/16 00:50:13;;;;;;;18.65;10.02;;;2.80;80.30;;;3.30;62.95;101883.56;4995794;28;20049;-84
2021/01/16 00:52:40;;;;;;;18.65;9.23;;;2.90;79.70;;;3.22;63.81;101876.00;4994193;28;20050;-84
2021/01/16 00:55:10;;;;;;;16.25;9.18;;;2.80;80.40;;;3.11;64.51;101879.41;4978291;28;20074;-84
2021/01/16 00:57:37;;;;;;;18.13;10.30;;;2.80;80.40;;;3.22;64.27;101880.50;4993895;28;20042;-84
2021/01/16 01:00:10;;;;;;;16.60;9.02;;;2.80;80.20;;;3.27;64.46;101870.31;4994254;28;20522;-84
2021/01/16 01:02:45;;;;;;;21.67;10.40;;;2.80;80.50;;;3.10;64.68;101872.31;4977917;28;20458;-84
2021/01/16 01:05:13;;;;;;;18.95;10.30;;;2.80;80.60;;;3.21;64.75;101868.03;4995622;28;20089;-84
2021/01/16 01:07:40;;;;;;;19.85;10.30;;;2.80;80.70;;;3.27;64.29;101867.63;4977734;28;20054;-84
2021/01/16 01:10:09;;;;;;;23.17;10.43;;;2.80;80.40;;;3.23;64.84;101876.88;4995513;28;20825;-84
2021/01/16 01:12:38;;;;;;;19.17;9.95;;;2.80;81.10;;;3.21;64.35;101873.41;4977354;28;20057;-84
2021/01/16 01:15:07;;;;;;;18.10;9.70;;;2.80;81.40;;;3.11;64.86;101867.81;4995213;28;20058;-84
2021/01/16 01:17:34;;;;;;;21.77;10.15;;;2.80;80.90;;;3.16;64.21;101865.69;4977455;28;20078;-84
2021/01/16 01:20:03;;;;;;;18.23;9.88;;;2.80;80.30;;;3.19;64.28;101867.28;4995223;28;20105;-84
2021/01/16 01:22:35;;;;;;;20.65;10.15;;;2.80;80.50;;;3.22;64.15;101865.25;4995316;28;20046;-83
2021/01/16 01:25:03;;;;;;;20.05;9.48;;;2.80;80.70;;;3.27;63.81;101862.25;4995129;28;20038;-84
2021/01/16 01:27:29;;;;;;;16.67;8.95;;;2.80;80.50;;;3.23;63.77;101864.28;4994111;28;20092;-84
2021/01/16 01:29:56;;;;;;;18.05;10.05;;;2.80;80.90;;;3.20;64.36;101861.81;4994868;28;20854;-84
2021/01/16 01:32:23;;;;;;;19.90;9.88;;;2.80;81.10;;;3.19;65.05;101860.06;4977882;28;20078;-84
2021/01/16 01:34:50;;;;;;;19.73;9.85;;;2.80;81.10;;;3.24;63.87;101866.00;4994655;28;20124;-84
2021/01/16 01:37:17;;;;;;;18.05;9.95;;;2.80;81.10;;;3.24;64.28;101857.09;4994314;28;20192;-84
2021/01/16 01:39:44;;;;;;;19.33;9.45;;;2.80;81.30;;;3.16;65.50;101859.41;4994758;28;20066;-84
2021/01/16 01:42:15;;;;;;;16.88;9.57;;;2.80;81.70;;;3.08;65.27;101857.25;4994675;28;20052;-84
2021/01/16 01:44:42;;;;;;;;;;;2.80;81.40;;;3.22;64.26;101856.28;4995159;28;20042;-84
2021/01/16 01:47:12;;;;;;;20.45;9.15;;;2.80;81.20;;;3.17;64.95;101855.78;4993911;28;19921;-84
2021/01/16 01:49:39;;;;;;;19.40;9.65;;;2.80;81.40;;;3.08;65.06;101851.84;4994858;28;20049;-84
2021/01/16 01:52:07;;;;;;;18.92;9.90;;;2.80;81.20;;;3.15;65.02;101852.31;4994563;28;20124;-83
2021/01/16 01:54:36;;;;;;;22.10;10.60;;;2.80;81.10;;;3.10;64.75;101856.19;4994915;28;20109;-84
2021/01/16 01:57:04;;;;;;;18.90;10.32;;;2.80;81.10;;;3.05;65.55;101852.09;4993818;28;20074;-84
2021/01/16 01:59:36;;;;;;;20.45;10.80;;;2.80;81.20;;;3.05;64.97;101852.09;4994257;28;20042;-84
2021/01/16 02:02:04;;;;;;;18.17;10.02;;;2.80;80.90;;;3.04;65.17;101843.13;4977220;28;20568;-84
2021/01/16 02:04:32;;;;;;;19.02;10.85;;;2.80;81.00;;;3.01;65.35;101846.03;4994532;28;20046;-84
2021/01/16 02:07:01;;;;;;;22.17;10.20;;;2.80;81.00;;;3.05;65.66;101842.19;4993781;28;20046;-84
2021/01/16 02:09:28;;;;;;;19.38;9.85;;;2.80;81.30;;;3.09;64.36;101838.31;4994474;28;20042;-84
2021/01/16 02:11:55;;;;;;;19.90;10.10;;;2.80;80.80;;;3.11;65.40;101841.75;4994650;28;20140;-84
2021/01/16 02:14:32;;;;;;;17.02;10.00;;;2.70;80.90;;;3.15;65.08;101839.72;4994676;28;20050;-84
2021/01/16 02:17:04;;;;;;;21.40;9.85;;;2.80;81.20;;;3.19;64.73;101843.06;4993694;28;20069;-84
2021/01/16 02:20:04;;;;;;;18.48;10.25;;;2.80;81.30;;;3.18;65.50;101836.84;4976508;28;20345;-84
2021/01/16 02:22:39;;;;;;;19.98;10.13;;;2.80;81.40;;;3.23;64.96;101836.50;4974590;28;20067;-84
2021/01/16 02:25:12;;;;;;;22.13;10.88;;;2.80;81.60;;;3.00;65.00;101827.31;4986404;28;20046;-84
2021/01/16 02:27:55;;;;;;;21.83;10.10;;;2.80;81.20;;;2.99;65.59;101831.84;4993945;28;20053;-84
2021/01/16 02:30:24;;;;;;;21.60;10.68;;;2.80;81.10;;;3.11;65.27;101830.16;4994232;28;20491;-84
2021/01/16 02:32:52;;;;;;;18.80;10.32;;;2.80;81.30;;;3.13;64.74;101823.69;4993920;28;20129;-84
2021/01/16 02:35:21;;;;;;;20.45;10.45;;;2.80;80.90;;;3.01;64.73;101823.66;4993870;28;20077;-84
2021/01/16 02:38:11;;;;;;;19.60;10.40;;;2.80;80.60;;;2.98;64.97;101818.50;4994090;28;20129;-84
2021/01/16 02:40:46;;;;;;;21.98;10.80;;;2.80;80.50;;;2.92;65.22;101820.63;4993383;28;20048;-84
2021/01/16 02:43:32;;;;;;;19.65;10.75;;;2.80;80.70;;;3.02;64.67;101818.16;4994119;28;20132;-84
2021/01/16 02:46:22;;;;;;;21.95;11.00;;;2.80;80.40;;;3.05;64.92;101815.28;4992316;28;20101;-84
2021/01/16 02:49:04;;;;;;;22.38;11.27;;;2.80;81.10;;;3.10;64.85;101815.84;4994651;28;20061;-84
2021/01/16 02:51:41;;;;;;;19.55;10.52;;;2.80;81.10;;;2.99;65.06;101804.94;4994363;28;20080;-84
2021/01/16 02:54:11;;;;;;;21.73;11.07;;;2.80;81.10;;;3.05;65.09;101809.91;4976590;28;20082;-84
2021/01/16 02:56:38;;;;;;;20.17;11.10;;;2.80;81.00;;;3.03;64.85;101806.47;4993497;28;20053;-84
2021/01/16 02:59:06;;;;;;;18.63;10.02;;;2.70;81.20;;;3.00;65.67;101806.66;4994054;28;20047;-84
2021/01/16 03:01:39;;;;;;;21.52;10.70;;;2.80;81.40;;;2.98;65.48;101803.22;4993518;28;20758;-84
2021/01/16 03:04:06;;;;;;;21.42;10.82;;;2.80;81.40;;;2.94;65.71;101801.69;4993612;28;20059;-84
2021/01/16 03:06:39;;;;;;;23.73;12.23;;;2.80;81.10;;;2.88;65.91;101802.13;4993104;28;20129;-84
2021/01/16 03:09:07;;;;;;;18.33;10.18;;;2.80;81.10;;;2.76;65.41;101803.81;4993787;28;20125;-85
2021/01/16 03:11:35;;;;;;;22.95;11.32;;;2.80;80.70;;;2.81;65.80;101806.19;4976045;28;20145;-84
2021/01/16 03:14:05;;;;;;;22.63;10.73;;;2.70;80.50;;;2.91;65.40;101801.91;4994250;28;20085;-84
2021/01/16 03:16:40;;;;;;;18.75;10.43;;;2.80;80.60;;;2.91;65.46;101799.19;4993510;28;20110;-84
2021/01/16 03:19:10;;;;;;;20.27;9.98;;;2.80;80.60;;;2.88;64.74;101794.91;4993616;28;20474;-84
2021/01/16 03:21:40;;;;;;;21.77;10.57;;;2.80;80.50;;;2.91;64.69;101792.03;4993984;28;20118;-84
2021/01/16 03:24:08;;;;;;;18.52;10.38;;;2.80;80.00;;;3.00;64.70;101790.53;4976279;28;20054;-84
2021/01/16 03:26:35;;;;;;;19.63;10.70;;;2.80;80.00;;;2.99;64.44;101799.56;4993420;28;20038;-84
2021/01/16 03:29:02;;;;;;;21.05;11.23;;;2.80;80.00;;;2.95;64.87;101798.03;4993474;28;20061;-84
2021/01/16 03:31:29;;;;;;;23.95;10.63;;;2.80;80.00;;;2.86;65.16;101798.66;4993758;28;20077;-84
2021/01/16 03:33:56;;;;;;;20.63;10.77;;;2.80;80.30;;;2.85;65.06;101802.31;4993809;28;20489;-84
2021/01/16 03:36:23;;;;;;;21.83;11.18;;;2.80;80.20;;;2.87;65.06;101803.91;4993394;28;20070;-84
2021/01/16 03:38:50;;;;;;;19.23;10.32;;;2.80;80.50;;;2.87;64.77;101805.75;4993596;28;20186;-84
2021/01/16 03:41:17;;;;;;;20.10;10.38;;;2.80;80.30;;;2.91;65.47;101801.91;4993299;28;20812;-84
2021/01/16 03:43:43;;;;;;;20.13;10.43;;;2.80;80.70;;;2.87;65.44;101795.84;4993224;28;20074;-84
2021/01/16 03:46:10;;;;;;;21.98;10.65;;;2.80;80.90;;;2.84;65.21;101804.16;4993315;28;20062;-84
2021/01/16 03:48:38;;;;;;;18.50;10.02;;;2.70;80.90;;;2.90;65.36;101805.56;4993737;28;20081;-84
2021/01/16 03:51:05;;;;;;;22.77;10.15;;;2.70;80.80;;;2.82;65.07;101799.81;4994930;28;20105;-84
2021/01/16 03:53:32;;;;;;;21.38;9.85;;;2.70;80.50;;;2.85;65.18;101789.72;4996524;28;20068;-84
2021/01/16 03:56:00;;;;;;;18.23;10.30;;;2.70;80.60;;;2.78;65.41;101799.19;4996448;28;20097;-84
2021/01/16 03:58:26;;;;;;;19.05;9.60;;;2.70;80.50;;;2.73;65.19;101788.72;4996667;28;20565;-84
2021/01/16 04:00:53;;;;;;;22.70;10.70;;;2.70;80.40;;;2.80;65.05;101794.56;4979098;28;20081;-84
2021/01/16 04:03:20;;;;;;;20.65;10.75;;;2.70;80.40;;;2.78;65.53;101791.13;4997184;28;20091;-84
2021/01/16 04:05:47;;;;;;;21.65;9.82;;;2.70;80.60;;;2.85;65.67;101792.41;4996779;28;20034;-84
2021/01/16 04:08:15;;;;;;;17.98;9.80;;;2.80;80.30;;;2.96;64.49;101775.56;4996649;28;20126;-84
2021/01/16 04:10:41;;;;;;;18.52;9.43;;;2.70;80.20;;;2.91;65.20;101785.75;4996670;28;20082;-84
2021/01/16 04:13:08;;;;;;;20.80;10.18;;;2.80;80.60;;;2.83;64.90;101766.59;4996965;28;20057;-85
2021/01/16 04:15:35;;;;;;;19.77;10.48;;;2.80;80.20;;;2.96;65.01;101772.88;4996667;28;20534;-84
2021/01/16 04:18:02;;;;;;;17.65;9.77;;;2.80;80.30;;;3.02;64.95;101764.38;4996232;28;20133;-84
2021/01/16 04:20:28;;;;;;;20.58;9.88;;;2.80;80.30;;;3.08;64.64;101761.25;4996201;28;20137;-84
2021/01/16 04:22:55;;;;;;;21.35;10.23;;;2.70;80.40;;;3.03;63.95;101757.19;4996192;28;20050;-84
2021/01/16 04:25:23;;;;;;;20.02;9.75;;;2.70;80.40;;;3.01;64.14;101754.59;4996059;28;20153;-84
2021/01/16 04:27:49;;;;;;;21.83;10.35;;;2.70;80.20;;;3.03;64.67;101746.44;4996650;28;20046;-84
2021/01/16 04:30:17;;;;;;;18.52;9.30;;;2.70;80.20;;;3.02;64.23;101745.56;4996230;28;20062;-84
2021/01/16 04:32:44;;;;;;;19.30;9.32;;;2.70;80.20;;;2.97;64.14;101747.72;4995835;28;20066;-84
2021/01/16 04:35:12;;;;;;;17.75;9.35;;;2.80;79.80;;;3.05;64.50;101737.28;4996353;28;20039;-84
2021/01/16 04:37:43;;;;;;;19.08;9.52;;;2.80;80.50;;;3.10;64.33;101745.91;4996003;28;20057;-84
2021/01/16 04:40:11;;;;;;;19.55;9.50;;;2.80;80.20;;;2.98;64.12;101733.28;4996116;28;20546;-84
2021/01/16 04:42:43;;;;;;;21.20;10.05;;;2.80;80.00;;;2.97;63.41;101741.47;4996173;28;20105;-84
2021/01/16 04:45:15;;;;;;;19.25;9.63;;;2.70;79.60;;;2.86;64.98;101735.00;4995841;28;20050;-84
2021/01/16 04:47:44;;;;;;;19.60;9.77;;;2.70;80.00;;;2.92;64.46;101733.72;4995453;28;20052;-84
2021/01/16 04:50:15;;;;;;;20.50;9.73;;;2.70;79.70;;;2.91;64.08;101732.88;4996259;28;20044;-84
2021/01/16 04:52:43;;;;;;;20.70;10.50;;;2.70;79.90;;;2.87;64.18;101733.16;4995949;28;20414;-84
2021/01/16 04:55:12;;;;;;;19.25;9.15;;;2.80;79.70;;;2.85;64.48;101730.56;4995958;28;20060;-84
2021/01/16 04:57:42;;;;;;;18.60;8.93;;;2.70;79.70;;;2.97;64.63;101726.22;4994967;28;20153;-84
2021/01/16 05:00:12;;;;;;;20.95;9.93;;;2.70;79.90;;;3.01;63.96;101727.72;4995873;28;20046;-84
2021/01/16 05:02:42;;;;;;;19.48;10.18;;;2.70;80.30;;;2.89;64.23;101731.22;4995149;28;20073;-84
2021/01/16 05:05:11;;;;;;;19.65;9.88;;;2.70;80.20;;;2.80;64.64;101724.66;4995711;28;20503;-84
2021/01/16 05:07:38;;;;;;;18.27;9.45;;;2.70;79.90;;;2.91;64.81;101721.22;4995479;28;20117;-84
2021/01/16 05:10:08;;;;;;;15.82;8.80;;;2.70;79.90;;;2.95;64.41;101728.13;4995317;28;20505;-84
2021/01/16 05:12:57;;;;;;;18.52;9.38;;;2.70;79.70;;;2.96;64.15;101718.25;4995018;28;20136;-84
2021/01/16 05:15:30;;;;;;;21.60;9.55;;;2.70;79.60;;;2.86;64.33;101716.19;4995286;28;20061;-84
2021/01/16 05:18:02;;;;;;;23.35;9.52;;;2.70;79.70;;;2.88;64.50;101713.41;4995510;28;20042;-84
2021/01/16 05:20:29;;;;;;;18.88;9.38;;;2.80;79.50;;;2.86;63.87;101713.50;4995084;28;20092;-84
2021/01/16 05:25:40;;;;;;;19.75;10.07;;;2.80;79.20;;;2.93;64.12;101711.22;4994715;28;20383;-84
2021/01/16 05:28:10;;;;;;;16.88;9.00;;;2.70;79.10;;;3.02;63.24;101707.91;4995427;28;20042;-84
2021/01/16 05:30:52;;;;;;;16.83;8.68;;;2.80;79.20;;;3.01;63.34;101700.81;4995420;28;20109;-84
2021/01/16 05:33:21;;;;;;;19.15;9.75;;;2.70;78.90;;;2.93;63.72;101709.41;4995050;28;20065;-84
2021/01/16 05:35:51;;;;;;;21.33;8.93;;;2.80;79.00;;;2.92;63.52;101701.47;4994930;28;20041;-84
2021/01/16 05:38:26;;;;;;;16.60;8.75;;;2.70;79.20;;;2.87;63.05;101701.75;4995074;28;20637;-84
2021/01/16 05:40:56;;;;;;;18.15;9.50;;;2.80;78.80;;;2.81;63.83;101704.88;4994841;28;20505;-84
2021/01/16 05:43:25;;;;;;;20.20;9.48;;;2.80;78.90;;;2.79;63.76;101696.06;4976902;28;20038;-84
2021/01/16 05:45:58;;;;;;;16.05;8.27;;;2.80;79.00;;;2.79;63.95;101700.56;4994847;28;20070;-84
2021/01/16 05:48:27;;;;;;;18.02;9.63;;;2.80;78.80;;;2.91;63.14;101688.97;4994620;28;20105;-84
2021/01/16 05:50:56;;;;;;;18.83;9.60;;;2.80;78.70;;;3.00;63.23;101696.41;4995031;28;20048;-84
2021/01/16 05:53:24;;;;;;;18.38;9.60;;;2.80;78.80;;;2.96;62.52;101685.97;4995121;28;20050;-84
2021/01/16 05:55:52;;;;;;;17.73;9.35;;;2.70;78.30;;;2.97;62.97;101680.50;4977153;28;20073;-84
2021/01/16 05:58:20;;;;;;;18.98;9.80;;;2.70;78.40;;;2.99;62.62;101692.00;4994678;28;20058;-84
2021/01/16 06:00:52;;;;;;;19.33;9.30;;;2.80;78.20;;;3.02;63.00;101675.63;4994297;28;20042;-84
2021/01/16 06:03:21;;;;;;;18.65;9.55;;;2.80;78.40;;;3.09;62.14;101676.94;4994662;28;20077;-84
2021/01/16 06:05:50;;;;;;;17.42;8.98;;;2.80;78.00;;;3.17;62.49;101667.47;4994355;28;20125;-84
2021/01/16 06:08:18;;;;;;;21.83;10.13;;;2.80;78.60;;;3.21;62.95;101663.59;4994631;28;20049;-84
2021/01/16 06:10:52;;;;;;;18.13;9.15;;;2.80;78.90;;;3.20;62.89;101667.25;4995353;28;20100;-84
2021/01/16 06:13:23;;;;;;;21.00;10.63;;;2.80;79.00;;;3.18;62.26;101667.38;4974588;28;20131;-84
2021/01/16 06:15:53;;;;;;;19.35;9.48;;;2.80;78.40;;;3.09;62.68;101652.72;4974397;28;20085;-84
2021/01/16 06:18:25;;;;;;;20.20;10.13;;;2.80;78.50;;;3.03;62.62;101650.47;4974639;28;20081;-84
2021/01/16 06:20:54;;;;;;;19.88;11.00;;;2.80;78.50;;;3.10;63.33;101643.72;4973577;28;20133;-84
2021/01/16 06:23:23;;;;;;;20.73;10.52;;;2.80;78.60;;;3.02;63.63;101645.22;4963354;28;20057;-84
2021/01/16 06:25:55;;;;;;;21.20;10.20;;;2.80;78.70;;;2.95;62.75;101647.44;4993805;28;20057;-84
2021/01/16 06:28:24;;;;;;;;;;;3.00;78.40;;;2.97;63.45;101645.53;4995000;28;20124;-84
2021/01/16 06:30:57;;;;;;;18.95;10.68;;;2.80;78.50;;;2.97;63.47;101645.53;4994070;28;19957;-84
2021/01/16 06:33:27;;;;;;;19.75;10.93;;;2.90;78.70;;;2.98;63.53;101647.25;4994033;28;20057;-85
2021/01/16 06:36:05;;;;;;;24.90;12.60;;;2.90;78.80;;;3.01;63.46;101643.47;4993280;28;20551;-85
2021/01/16 06:38:34;;;;;;;24.52;13.02;;;2.90;78.80;;;3.02;63.42;101643.38;4993444;28;20121;-86
2021/01/16 06:41:15;;;;;;;23.10;12.23;;;2.90;79.00;;;2.98;63.87;101647.25;4994213;28;20071;-86
2021/01/16 06:43:44;;;;;;;;;;;2.90;78.80;;;2.98;63.65;101644.56;4994329;28;20133;-86
2021/01/16 06:46:14;;;;;;;21.60;11.93;;;2.90;79.20;;;2.97;63.82;101640.16;4993031;28;20461;-86
2021/01/16 06:48:44;;;;;;;22.77;12.18;;;3.00;78.90;;;2.90;64.23;101641.56;4991729;28;20073;-86
2021/01/16 06:51:22;;;;;;;22.27;11.93;;;2.80;78.50;;;2.94;63.64;101638.53;4992257;28;20062;-86
2021/01/16 06:53:49;;;;;;;20.75;11.23;;;2.80;78.80;;;2.98;64.38;101636.50;4993328;28;20117;-86
2021/01/16 06:56:26;;;;;;;23.23;12.00;;;2.80;78.80;;;2.99;63.49;101648.09;4993510;28;20125;-86
2021/01/16 06:58:55;;;;;;;22.60;11.95;;;2.80;79.00;;;3.06;62.95;101638.63;4993691;28;20046;-86
2021/01/16 07:01:31;;;;;;;24.50;11.95;;;2.80;78.80;;;2.98;63.62;101636.50;4993583;28;20122;-86
2021/01/16 07:04:00;;;;;;;21.27;11.75;;;2.80;79.00;;;2.94;63.86;101629.59;4992983;28;20631;-87
2021/01/16 07:06:27;;;;;;;20.58;11.20;;;2.80;78.80;;;2.88;63.95;101632.72;4992860;28;20129;-86
2021/01/16 07:08:56;;;;;;;23.77;11.63;;;2.80;78.70;;;2.93;63.75;101641.31;4991471;28;20070;-86
2021/01/16 07:11:22;;;;;;;22.58;11.82;;;2.80;78.60;;;3.02;64.21;101642.50;4992746;28;20043;-86
2021/01/16 07:13:51;;;;;;;21.05;10.90;;;2.90;78.90;;;3.02;63.12;101643.38;4992801;28;20077;-85
2021/01/16 07:16:18;;;;;;;21.13;11.55;;;2.90;78.70;;;2.98;64.15;101639.19;4993109;28;20061;-85
2021/01/16 07:18:47;;;;;;;20.95;11.50;;;2.90;78.70;;;2.99;63.66;101632.84;4993440;28;20065;-85
2021/01/16 07:21:13;;;;;;;21.30;11.18;;;2.90;78.90;;;3.01;63.32;101628.22;4992488;28;20077;-88
2021/01/16 07:23:41;;;;;;;22.13;11.23;;;2.90;78.60;;;2.99;64.02;101629.28;4992429;28;20805;-85
2021/01/16 07:26:09;;;;;;;21.88;11.30;;;2.90;78.60;;;3.04;63.24;101636.06;5006258;23;20112;-85
2021/01/16 07:28:37;;;;;;;21.05;10.88;;;2.90;78.70;;;3.09;63.49;101636.59;5035161;28;20095;-86
2021/01/16 07:31:05;;;;;;;22.10;10.32;;;2.90;78.90;;;3.11;63.39;101626.59;5035242;28;20069;-86
2021/01/16 07:33:32;;;;;;;20.90;11.07;;;2.80;78.60;;;3.09;63.72;101631.22;5035856;28;20038;-90
2021/01/16 07:38:38;;;;;;;21.30;10.77;;;2.90;78.70;;;3.04;63.24;101625.28;4990046;28;20138;-87
2021/01/16 07:41:12;;;;;;;19.60;10.43;;;3.00;78.60;;;3.11;62.94;101628.44;4991230;28;20057;-87
2021/01/16 07:43:57;;;;;;;21.17;11.07;;;2.90;78.40;;;3.12;63.15;101628.31;4989291;28;20100;-87
2021/01/16 07:46:30;;;;;;;21.52;11.73;;;2.90;78.50;;;3.19;63.24;101627.88;4989192;28;20047;-90
2021/01/16 07:49:01;;;;;;;22.23;11.00;;;2.90;78.50;;;3.18;62.93;101615.38;4989593;28;20050;-89
2021/01/16 07:51:33;;;;;;;19.73;10.30;;;3.10;78.70;;;3.20;63.02;101621.50;4989822;28;20062;-89
2021/01/16 07:54:05;;;;;;;22.67;11.27;;;2.90;78.90;;;3.20;63.67;101619.72;4990975;28;20042;-90
2021/01/16 07:56:42;;;;;;;21.33;11.65;;;2.90;79.10;;;3.16;63.47;101612.81;4991044;28;20597;-88
2021/01/16 07:59:19;;;;;;;22.23;11.23;;;2.90;78.90;;;3.16;63.36;101618.22;4989471;28;20730;-88
2021/01/16 08:02:26;;;;;;;23.95;12.05;;;3.00;79.10;;;3.19;64.23;101609.06;4989328;28;20062;-89
2021/01/16 08:05:08;;;;;;;22.02;11.10;;;2.90;79.40;;;3.21;63.21;101609.78;4990493;28;20042;-87
2021/01/16 08:08:20;;;;;;;22.38;12.45;;;2.90;79.20;;;3.18;63.49;101612.69;4989027;28;20054;-86
2021/01/16 08:10:55;;;;;;;24.17;11.98;;;2.90;79.30;;;3.17;63.99;101603.78;4989700;28;20117;-88
2021/01/16 08:13:24;;;;;;;22.27;12.05;;;2.90;79.40;;;3.07;64.41;101603.56;4991413;28;20064;-86
2021/01/16 08:15:51;;;;;;;22.45;12.02;;;2.90;79.40;;;3.05;64.59;101593.91;4989221;28;20042;-86
2021/01/16 08:18:22;;;;;;;23.38;12.18;;;3.00;79.30;;;3.05;64.39;101592.06;4989735;28;20483;-87
2021/01/16 08:20:50;;;;;;;25.30;12.80;;;3.00;79.30;;;3.18;64.33;101588.47;4991578;28;20042;-87
2021/01/16 08:23:25;;;;;;;23.55;12.32;;;3.00;79.30;;;3.18;64.40;101585.78;4989758;28;20137;-88
2021/01/16 08:26:07;;;;;;;25.15;13.25;;;3.00;79.20;;;3.16;63.86;101580.56;4990837;28;20042;-89
2021/01/16 08:28:38;;;;;;;23.08;12.73;;;3.00;79.30;;;3.13;64.45;101595.06;4990383;28;20054;-87
2021/01/16 08:31:05;;;;;;;27.27;12.85;;;3.00;79.50;;;3.19;64.33;101585.69;4990250;28;20492;-89
2021/01/16 08:33:33;;;;;;;25.48;12.30;;;3.00;79.50;;;3.18;64.45;101588.47;4990297;28;20041;-91
2021/01/16 08:36:17;;;;;;;26.70;13.50;;;3.00;79.60;;;3.17;64.13;101578.72;4988251;28;20112;-88
2021/01/16 08:38:45;;;;;;;29.15;14.32;;;3.00;79.40;;;3.17;64.69;101573.34;4988067;28;20060;-87
2021/01/16 08:41:23;;;;;;;28.95;14.13;;;3.00;79.60;;;3.15;64.42;101577.97;4989209;28;20046;-88
2021/01/16 08:43:57;;;;;;;27.88;13.50;;;3.00;79.60;;;3.20;64.54;101575.78;4988452;28;20141;-89
2021/01/16 08:46:32;;;;;;;27.85;13.77;;;3.10;79.70;;;3.16;64.60;101571.59;4988262;28;20092;-87
2021/01/16 08:49:09;;;;;;;26.13;13.63;;;3.10;79.70;;;3.20;64.50;101575.78;4989927;28;20113;-87
2021/01/16 08:51:40;;;;;;;26.13;13.77;;;3.00;79.50;;;3.16;64.14;101563.53;4988570;28;20054;-87
2021/01/16 08:54:15;;;;;;;;;;;3.10;79.60;;;3.19;64.40;101566.88;4989447;28;20054;-87
2021/01/16 08:56:49;;;;;;;26.92;13.48;;;3.00;79.30;;;3.24;64.20;101563.84;4990661;28;20004;-89
2021/01/16 08:59:26;;;;;;;25.05;13.07;;;3.10;79.30;;;3.26;64.30;101570.84;4989408;28;20416;-89
2021/01/16 09:02:04;;;;;;;26.83;12.85;;;3.10;79.50;;;3.17;64.35;101573.34;4992364;28;20034;-90
2021/01/16 09:04:35;;;;;;;23.05;11.75;;;3.10;79.20;;;3.12;63.57;101569.16;4992169;28;20050;-89
2021/01/16 09:07:14;;;;;;;22.77;13.18;;;3.10;79.10;;;3.17;63.81;101566.13;4989686;28;20054;-89
2021/01/16 09:09:54;;;;;;;23.15;12.57;;;3.10;79.00;;;3.22;64.15;101560.38;4990267;28;20061;-90
2021/01/16 09:12:30;;;;;;;23.20;12.25;;;3.20;79.00;;;3.26;64.07;101564.59;4977350;28;20058;-87
2021/01/16 09:15:22;;;;;;;22.95;12.35;;;3.20;78.60;;;3.27;63.68;101560.94;4970021;28;20050;-86
2021/01/16 09:18:10;;;;;;;27.55;12.98;;;3.10;78.60;;;3.20;63.92;101562.34;4987340;28;20054;-87
2021/01/16 09:20:42;;;;;;;24.60;12.60;;;3.20;79.10;;;3.20;64.04;101562.34;4987777;28;20050;-87
2021/01/16 09:23:31;;;;;;;26.55;12.63;;;3.20;78.50;;;3.19;63.58;101557.94;4989174;28;20057;-86
2021/01/16 09:26:09;;;;;;;26.48;12.35;;;3.20;78.70;;;3.24;63.66;101551.25;4985539;28;20050;-86
2021/01/16 09:28:43;;;;;;;21.75;12.52;;;3.20;78.40;;;3.25;64.03;101557.50;4984263;28;20050;-85
2021/01/16 09:31:30;;;;;;;23.23;12.32;;;3.40;78.40;;;3.21;63.22;101561.38;4984018;28;20035;-88
2021/01/16 09:34:07;;;;;;;23.70;12.00;;;3.30;78.60;;;3.23;63.96;101556.75;4989606;28;20060;-85
2021/01/16 09:36:49;;;;;;;23.65;11.40;;;3.30;78.50;;;3.29;63.87;101562.56;4998390;28;20129;-88
2021/01/16 09:39:22;;;;;;;24.63;12.48;;;3.30;78.30;;;3.33;63.31;101563.16;4991773;28;20042;-87
2021/01/16 09:41:53;;;;;;;26.35;13.00;;;3.30;78.10;;;3.33;63.67;101568.53;5005766;28;20640;-84
2021/01/16 09:45:04;;;;;;;26.13;12.30;;;3.30;78.10;;;3.37;63.29;101567.38;4993545;28;20042;-87
2021/01/16 09:47:50;;;;;;;26.00;13.43;;;3.30;78.20;;;3.31;64.14;101563.31;4968171;28;20047;-86
2021/01/16 09:50:28;;;;;;;25.13;11.90;;;3.30;78.50;;;3.32;63.98;101550.69;4968653;28;20059;-87
2021/01/16 09:53:05;;;;;;;26.60;13.20;;;3.40;78.40;;;3.39;63.56;101546.59;4986336;28;20047;-86
2021/01/16 09:55:38;;;;;;;26.20;12.82;;;3.40;78.50;;;3.38;62.55;101542.16;4986479;28;20056;-86
2021/01/16 09:58:30;;;;;;;30.23;14.23;;;3.40;78.20;;;3.41;63.66;101541.97;4988605;28;20121;-86
2021/01/16 10:01:15;;;;;;;29.55;13.90;;;3.40;78.10;;;3.34;63.57;101543.38;4986317;28;20070;-86
2021/01/16 10:03:47;;;;;;;25.10;13.40;;;3.40;78.10;;;3.38;63.45;101546.69;4985261;28;20051;-87
2021/01/16 10:06:18;;;;;;;24.10;12.53;;;3.40;78.10;;;3.35;62.86;101546.91;4988493;28;20038;-87
2021/01/16 10:08:48;;;;;;;27.35;13.35;;;3.40;77.70;;;3.31;63.48;101540.91;4986646;28;20042;-86
2021/01/16 10:11:39;;;;;;;22.75;12.88;;;3.40;77.70;;;3.37;63.44;101544.97;4988690;28;20109;-87
2021/01/16 10:14:14;;;;;;;24.48;12.82;;;3.50;77.90;;;3.36;63.00;101536.03;4987104;28;20115;-87
2021/01/16 10:16:45;;;;;;;24.88;12.60;;;3.50;77.80;;;3.42;63.61;101538.28;4987132;28;20145;-87
2021/01/16 10:19:15;;;;;;;27.35;14.25;;;3.50;77.70;;;3.45;63.26;101532.69;4988677;28;20138;-86
2021/01/16 10:21:57;;;;;;;26.67;12.70;;;3.50;77.90;;;3.46;63.19;101523.63;4987379;28;20638;-88
2021/01/16 10:24:26;;;;;;;22.83;12.07;;;3.50;77.30;;;3.44;62.54;101528.25;4988459;28;20733;-86
2021/01/16 10:26:53;;;;;;;29.20;12.95;;;3.50;77.50;;;3.45;62.49;101521.91;4986963;28;20621;-85
2021/01/16 10:29:29;;;;;;;25.05;11.73;;;3.50;76.90;;;3.53;62.77;101518.66;4986945;28;20046;-89
2021/01/16 10:32:19;;;;;;;23.45;12.30;;;3.50;76.90;;;3.57;62.29;101513.91;4986644;28;20046;-88
2021/01/16 10:34:47;;;;;;;24.63;12.27;;;3.50;77.00;;;3.58;61.90;101516.50;4988166;28;20046;-88
2021/01/16 10:37:14;;;;;;;24.58;11.75;;;3.60;76.90;;;3.57;62.05;101516.59;4987344;28;20042;-89
2021/01/16 10:39:41;;;;;;;23.00;11.55;;;3.60;76.70;;;3.55;61.55;101510.47;4988788;28;20043;-87